sensor_id;sensor_type;location;lat;lon;timestamp;temperature;humidity
37446;DHT22;23307;51.136;14.942;2022-11-20T00:00:26;-0.80;99.90
37446;DHT22;23307;51.136;14.942;2022-11-20T00:02:52;-0.90;99.90
37446;DHT22;23307;51.136;14.942;2022-11-20T00:05:17;-0.80;99.90
37446;DHT22;23307;51.136;14.942;2022-11-20T00:07:43;-0.90;99.90
37446;DHT22;23307;51.136;14.942;2022-11-20T00:10:09;-0.90;99.90
37446;DHT22;23307;51.136;14.942;2022-11-20T00:12:34;-0.90;99.90
37446;DHT22;23307;51.136;14.942;2022-11-20T00:15:00;-0.90;99.90
37446;DHT22;23307;51.136;14.942;2022-11-20T00:17:26;-0.90;99.90
37446;DHT22;23307;51.136;14.942;2022-11-20T00:19:51;-0.90;99.90
37446;DHT22;23307;51.136;14.942;2022-11-20T00:22:17;-0.90;99.90
37446;DHT22;23307;51.136;14.942;2022-11-20T00:24:43;-0.90;99.90
37446;DHT22;23307;51.136;14.942;2022-11-20T00:27:08;-0.90;99.90
37446;DHT22;23307;51.136;14.942;2022-11-20T00:29:34;-0.90;99.90
37446;DHT22;23307;51.136;14.942;2022-11-20T00:31:59;-0.90;99.90
37446;DHT22;23307;51.136;14.942;2022-11-20T00:34:25;-0.90;99.90
37446;DHT22;23307;51.136;14.942;2022-11-20T00:36:50;-0.90;99.90
37446;DHT22;23307;51.136;14.942;2022-11-20T00:39:16;-1.00;99.90
37446;DHT22;23307;51.136;14.942;2022-11-20T00:41:41;-1.00;99.90
37446;DHT22;23307;51.136;14.942;2022-11-20T00:44:07;-1.00;99.90
37446;DHT22;23307;51.136;14.942;2022-11-20T00:46:32;-1.00;99.90
37446;DHT22;23307;51.136;14.942;2022-11-20T00:48:58;-1.00;99.90
37446;DHT22;23307;51.136;14.942;2022-11-20T00:51:25;-1.00;99.90
37446;DHT22;23307;51.136;14.942;2022-11-20T00:53:51;-1.00;99.90
37446;DHT22;23307;51.136;14.942;2022-11-20T00:56:18;-1.00;99.90
37446;DHT22;23307;51.136;14.942;2022-11-20T00:58:46;-1.00;99.90
37446;DHT22;23307;51.136;14.942;2022-11-20T01:03:44;-1.00;99.90
37446;DHT22;23307;51.136;14.942;2022-11-20T01:06:20;-1.00;99.90
37446;DHT22;23307;51.136;14.942;2022-11-20T01:08:46;-0.90;99.90
37446;DHT22;23307;51.136;14.942;2022-11-20T01:11:17;-1.00;99.90
37446;DHT22;23307;51.136;14.942;2022-11-20T01:13:44;-1.00;99.90
37446;DHT22;23307;51.136;14.942;2022-11-20T01:16:28;-1.00;99.90
37446;DHT22;23307;51.136;14.942;2022-11-20T01:18:57;-1.00;99.90
37446;DHT22;23307;51.136;14.942;2022-11-20T01:21:25;-1.00;99.90
37446;DHT22;23307;51.136;14.942;2022-11-20T01:23:51;-1.00;99.90
37446;DHT22;23307;51.136;14.942;2022-11-20T01:26:19;-1.00;99.90
37446;DHT22;23307;51.136;14.942;2022-11-20T01:28:45;-1.00;99.90
37446;DHT22;23307;51.136;14.942;2022-11-20T01:31:21;-1.00;99.90
37446;DHT22;23307;51.136;14.942;2022-11-20T01:33:48;-1.00;99.90
37446;DHT22;23307;51.136;14.942;2022-11-20T01:36:15;-1.00;99.90
37446;DHT22;23307;51.136;14.942;2022-11-20T01:38:41;-1.00;99.90
37446;DHT22;23307;51.136;14.942;2022-11-20T01:41:08;-1.00;99.90
37446;DHT22;23307;51.136;14.942;2022-11-20T01:43:34;-1.10;99.90
37446;DHT22;23307;51.136;14.942;2022-11-20T01:51:20;-1.10;99.90
37446;DHT22;23307;51.136;14.942;2022-11-20T01:53:46;-1.10;99.90
37446;DHT22;23307;51.136;14.942;2022-11-20T01:56:13;-1.10;99.90
37446;DHT22;23307;51.136;14.942;2022-11-20T01:58:44;-1.10;99.90
37446;DHT22;23307;51.136;14.942;2022-11-20T02:01:12;-1.20;99.90
37446;DHT22;23307;51.136;14.942;2022-11-20T02:03:38;-1.10;99.90
37446;DHT22;23307;51.136;14.942;2022-11-20T02:06:11;-1.20;99.90
37446;DHT22;23307;51.136;14.942;2022-11-20T02:08:39;-1.20;99.90
37446;DHT22;23307;51.136;14.942;2022-11-20T02:11:04;-1.20;99.90
37446;DHT22;23307;51.136;14.942;2022-11-20T02:13:30;-1.20;99.90
37446;DHT22;23307;51.136;14.942;2022-11-20T02:16:30;-1.20;99.90
37446;DHT22;23307;51.136;14.942;2022-11-20T02:18:58;-1.30;99.90
37446;DHT22;23307;51.136;14.942;2022-11-20T02:21:27;-1.30;99.90
37446;DHT22;23307;51.136;14.942;2022-11-20T02:26:20;-1.30;99.90
37446;DHT22;23307;51.136;14.942;2022-11-20T02:28:47;-1.40;99.90
37446;DHT22;23307;51.136;14.942;2022-11-20T02:31:12;-1.40;99.90
37446;DHT22;23307;51.136;14.942;2022-11-20T02:33:38;-1.40;99.90
37446;DHT22;23307;51.136;14.942;2022-11-20T02:36:04;-1.40;99.90
37446;DHT22;23307;51.136;14.942;2022-11-20T02:38:30;-1.40;99.90
37446;DHT22;23307;51.136;14.942;2022-11-20T02:40:55;-1.40;99.90
37446;DHT22;23307;51.136;14.942;2022-11-20T02:43:21;-1.30;99.90
37446;DHT22;23307;51.136;14.942;2022-11-20T02:45:47;-1.30;99.90
37446;DHT22;23307;51.136;14.942;2022-11-20T02:48:13;-1.30;99.90
37446;DHT22;23307;51.136;14.942;2022-11-20T02:50:39;-1.30;99.90
37446;DHT22;23307;51.136;14.942;2022-11-20T02:53:05;-1.30;99.90
37446;DHT22;23307;51.136;14.942;2022-11-20T02:55:31;-1.30;99.90
37446;DHT22;23307;51.136;14.942;2022-11-20T02:57:57;-1.30;99.90
37446;DHT22;23307;51.136;14.942;2022-11-20T03:00:22;-1.30;99.90
37446;DHT22;23307;51.136;14.942;2022-11-20T03:02:48;-1.30;99.90
37446;DHT22;23307;51.136;14.942;2022-11-20T03:05:13;-1.30;99.90
37446;DHT22;23307;51.136;14.942;2022-11-20T03:07:39;-1.30;99.90
37446;DHT22;23307;51.136;14.942;2022-11-20T03:10:05;-1.30;99.90
37446;DHT22;23307;51.136;14.942;2022-11-20T03:12:31;-1.30;99.90
37446;DHT22;23307;51.136;14.942;2022-11-20T03:14:56;-1.30;99.90
37446;DHT22;23307;51.136;14.942;2022-11-20T03:17:22;-1.30;99.90
37446;DHT22;23307;51.136;14.942;2022-11-20T03:19:47;-1.30;99.90
37446;DHT22;23307;51.136;14.942;2022-11-20T03:22:13;-1.30;99.90
37446;DHT22;23307;51.136;14.942;2022-11-20T03:24:38;-1.30;99.90
37446;DHT22;23307;51.136;14.942;2022-11-20T03:27:04;-1.30;99.90
37446;DHT22;23307;51.136;14.942;2022-11-20T03:29:29;-1.20;99.90
37446;DHT22;23307;51.136;14.942;2022-11-20T03:31:55;-1.20;99.90
37446;DHT22;23307;51.136;14.942;2022-11-20T03:34:20;-1.20;99.90
37446;DHT22;23307;51.136;14.942;2022-11-20T03:36:46;-1.20;99.90
37446;DHT22;23307;51.136;14.942;2022-11-20T03:39:12;-1.20;99.90
37446;DHT22;23307;51.136;14.942;2022-11-20T03:41:39;-1.20;99.90
37446;DHT22;23307;51.136;14.942;2022-11-20T03:44:06;-1.30;99.90
37446;DHT22;23307;51.136;14.942;2022-11-20T03:46:33;-1.30;99.90
37446;DHT22;23307;51.136;14.942;2022-11-20T03:48:58;-1.30;99.90
37446;DHT22;23307;51.136;14.942;2022-11-20T03:51:29;-1.30;99.90
37446;DHT22;23307;51.136;14.942;2022-11-20T03:53:59;-1.30;99.90
37446;DHT22;23307;51.136;14.942;2022-11-20T03:56:27;-1.30;99.90
37446;DHT22;23307;51.136;14.942;2022-11-20T03:58:54;-1.30;99.90
37446;DHT22;23307;51.136;14.942;2022-11-20T04:01:22;-1.30;99.90
37446;DHT22;23307;51.136;14.942;2022-11-20T04:03:48;-1.30;99.90
37446;DHT22;23307;51.136;14.942;2022-11-20T04:06:17;-1.30;99.90
37446;DHT22;23307;51.136;14.942;2022-11-20T04:08:43;-1.30;99.90
37446;DHT22;23307;51.136;14.942;2022-11-20T04:13:34;-1.30;99.90
37446;DHT22;23307;51.136;14.942;2022-11-20T04:16:00;-1.30;99.90
37446;DHT22;23307;51.136;14.942;2022-11-20T04:18:25;-1.30;99.90
37446;DHT22;23307;51.136;14.942;2022-11-20T04:20:51;-1.30;99.90
37446;DHT22;23307;51.136;14.942;2022-11-20T04:23:16;-1.30;99.90
37446;DHT22;23307;51.136;14.942;2022-11-20T04:25:42;-1.30;99.90
37446;DHT22;23307;51.136;14.942;2022-11-20T04:28:07;-1.30;99.90
37446;DHT22;23307;51.136;14.942;2022-11-20T04:30:33;-1.30;99.90
37446;DHT22;23307;51.136;14.942;2022-11-20T04:32:58;-1.30;99.90
37446;DHT22;23307;51.136;14.942;2022-11-20T04:35:24;-1.40;99.90
37446;DHT22;23307;51.136;14.942;2022-11-20T04:37:51;-1.40;99.90
37446;DHT22;23307;51.136;14.942;2022-11-20T04:40:17;-1.40;99.90
37446;DHT22;23307;51.136;14.942;2022-11-20T04:42:42;-1.40;99.90
37446;DHT22;23307;51.136;14.942;2022-11-20T04:45:08;-1.40;99.90
37446;DHT22;23307;51.136;14.942;2022-11-20T04:47:34;-1.40;99.90
37446;DHT22;23307;51.136;14.942;2022-11-20T04:49:59;-1.40;99.90
37446;DHT22;23307;51.136;14.942;2022-11-20T04:52:25;-1.40;99.90
37446;DHT22;23307;51.136;14.942;2022-11-20T04:54:51;-1.40;99.90
37446;DHT22;23307;51.136;14.942;2022-11-20T04:57:18;-1.40;99.90
37446;DHT22;23307;51.136;14.942;2022-11-20T04:59:43;-1.40;99.90
37446;DHT22;23307;51.136;14.942;2022-11-20T05:02:10;-1.40;99.90
37446;DHT22;23307;51.136;14.942;2022-11-20T05:04:35;-1.40;99.90
37446;DHT22;23307;51.136;14.942;2022-11-20T05:07:01;-1.40;99.90
37446;DHT22;23307;51.136;14.942;2022-11-20T05:09:27;-1.40;99.90
37446;DHT22;23307;51.136;14.942;2022-11-20T05:11:52;-1.40;99.90
37446;DHT22;23307;51.136;14.942;2022-11-20T05:14:18;-1.40;99.90
37446;DHT22;23307;51.136;14.942;2022-11-20T05:16:43;-1.50;99.90
37446;DHT22;23307;51.136;14.942;2022-11-20T05:19:09;-1.50;99.90
37446;DHT22;23307;51.136;14.942;2022-11-20T05:21:34;-1.50;99.90
37446;DHT22;23307;51.136;14.942;2022-11-20T05:24:00;-1.50;99.90
37446;DHT22;23307;51.136;14.942;2022-11-20T05:26:25;-1.50;99.90
37446;DHT22;23307;51.136;14.942;2022-11-20T05:28:51;-1.50;99.90
37446;DHT22;23307;51.136;14.942;2022-11-20T05:31:22;-1.50;99.90
37446;DHT22;23307;51.136;14.942;2022-11-20T05:33:47;-1.50;99.90
37446;DHT22;23307;51.136;14.942;2022-11-20T05:36:14;-1.50;99.90
37446;DHT22;23307;51.136;14.942;2022-11-20T05:38:40;-1.60;99.90
37446;DHT22;23307;51.136;14.942;2022-11-20T05:41:12;-1.60;99.90
37446;DHT22;23307;51.136;14.942;2022-11-20T05:43:39;-1.60;99.90
37446;DHT22;23307;51.136;14.942;2022-11-20T05:46:07;-1.60;99.90
37446;DHT22;23307;51.136;14.942;2022-11-20T05:48:33;-1.60;99.90
37446;DHT22;23307;51.136;14.942;2022-11-20T05:51:01;-1.60;99.90
37446;DHT22;23307;51.136;14.942;2022-11-20T05:53:27;-1.60;99.90
37446;DHT22;23307;51.136;14.942;2022-11-20T05:55:57;-1.60;99.90
37446;DHT22;23307;51.136;14.942;2022-11-20T05:58:23;-1.60;99.90
37446;DHT22;23307;51.136;14.942;2022-11-20T06:00:48;-1.60;99.90
37446;DHT22;23307;51.136;14.942;2022-11-20T06:03:14;-1.60;99.90
37446;DHT22;23307;51.136;14.942;2022-11-20T06:05:39;-1.60;99.90
37446;DHT22;23307;51.136;14.942;2022-11-20T06:08:05;-1.60;99.90
37446;DHT22;23307;51.136;14.942;2022-11-20T06:10:30;-1.60;99.90
37446;DHT22;23307;51.136;14.942;2022-11-20T06:12:59;-1.60;99.90
37446;DHT22;23307;51.136;14.942;2022-11-20T06:15:25;-1.60;99.90
37446;DHT22;23307;51.136;14.942;2022-11-20T06:17:54;-1.60;99.90
37446;DHT22;23307;51.136;14.942;2022-11-20T06:20:21;-1.60;99.90
37446;DHT22;23307;51.136;14.942;2022-11-20T06:22:47;-1.60;99.90
37446;DHT22;23307;51.136;14.942;2022-11-20T06:25:13;-1.60;99.90
37446;DHT22;23307;51.136;14.942;2022-11-20T06:27:39;-1.60;99.90
37446;DHT22;23307;51.136;14.942;2022-11-20T06:30:05;-1.60;99.90
37446;DHT22;23307;51.136;14.942;2022-11-20T06:32:30;-1.60;99.90
37446;DHT22;23307;51.136;14.942;2022-11-20T06:34:56;-1.60;99.90
37446;DHT22;23307;51.136;14.942;2022-11-20T06:37:21;-1.60;99.90
37446;DHT22;23307;51.136;14.942;2022-11-20T06:39:47;-1.60;99.90
37446;DHT22;23307;51.136;14.942;2022-11-20T06:42:13;-1.60;99.90
37446;DHT22;23307;51.136;14.942;2022-11-20T06:44:38;-1.60;99.90
37446;DHT22;23307;51.136;14.942;2022-11-20T06:47:04;-1.60;99.90
37446;DHT22;23307;51.136;14.942;2022-11-20T06:49:29;-1.60;99.90
37446;DHT22;23307;51.136;14.942;2022-11-20T06:51:55;-1.50;99.90
37446;DHT22;23307;51.136;14.942;2022-11-20T06:54:20;-1.50;99.90
37446;DHT22;23307;51.136;14.942;2022-11-20T06:56:47;-1.50;99.90
37446;DHT22;23307;51.136;14.942;2022-11-20T06:59:13;-1.50;99.90
37446;DHT22;23307;51.136;14.942;2022-11-20T07:01:38;-1.40;99.90
37446;DHT22;23307;51.136;14.942;2022-11-20T07:04:04;-1.40;99.90
37446;DHT22;23307;51.136;14.942;2022-11-20T07:06:30;-1.40;99.90
37446;DHT22;23307;51.136;14.942;2022-11-20T07:08:55;-1.40;99.90
37446;DHT22;23307;51.136;14.942;2022-11-20T07:11:21;-1.40;99.90
37446;DHT22;23307;51.136;14.942;2022-11-20T07:13:46;-1.40;99.90
37446;DHT22;23307;51.136;14.942;2022-11-20T07:16:12;-1.40;99.90
37446;DHT22;23307;51.136;14.942;2022-11-20T07:18:38;-1.30;99.90
37446;DHT22;23307;51.136;14.942;2022-11-20T07:21:05;-1.30;99.90
37446;DHT22;23307;51.136;14.942;2022-11-20T07:23:32;-1.20;99.90
37446;DHT22;23307;51.136;14.942;2022-11-20T07:25:57;-1.20;99.90
37446;DHT22;23307;51.136;14.942;2022-11-20T07:28:23;-1.20;99.90
37446;DHT22;23307;51.136;14.942;2022-11-20T07:30:52;-1.10;99.90
37446;DHT22;23307;51.136;14.942;2022-11-20T07:33:18;-1.10;99.90
37446;DHT22;23307;51.136;14.942;2022-11-20T07:35:44;-1.10;99.90
37446;DHT22;23307;51.136;14.942;2022-11-20T07:38:10;-1.10;99.90
37446;DHT22;23307;51.136;14.942;2022-11-20T07:40:36;-1.10;99.90
37446;DHT22;23307;51.136;14.942;2022-11-20T07:43:01;-1.10;99.90
37446;DHT22;23307;51.136;14.942;2022-11-20T07:45:27;-1.10;99.90
37446;DHT22;23307;51.136;14.942;2022-11-20T07:47:52;-1.00;99.90
37446;DHT22;23307;51.136;14.942;2022-11-20T07:50:19;-1.00;99.90
37446;DHT22;23307;51.136;14.942;2022-11-20T07:52:44;-1.00;99.90
37446;DHT22;23307;51.136;14.942;2022-11-20T07:55:10;-0.90;99.90
37446;DHT22;23307;51.136;14.942;2022-11-20T07:57:36;-0.90;99.90
37446;DHT22;23307;51.136;14.942;2022-11-20T08:00:03;-0.80;99.90
37446;DHT22;23307;51.136;14.942;2022-11-20T08:02:29;-0.70;99.90
37446;DHT22;23307;51.136;14.942;2022-11-20T08:04:55;-0.70;99.90
37446;DHT22;23307;51.136;14.942;2022-11-20T08:07:20;-0.70;99.90
37446;DHT22;23307;51.136;14.942;2022-11-20T08:09:46;-0.60;99.90
37446;DHT22;23307;51.136;14.942;2022-11-20T08:12:19;-0.60;99.90
37446;DHT22;23307;51.136;14.942;2022-11-20T08:15:04;-0.50;99.90
37446;DHT22;23307;51.136;14.942;2022-11-20T08:17:30;-0.50;99.90
37446;DHT22;23307;51.136;14.942;2022-11-20T08:19:55;-0.40;99.90
37446;DHT22;23307;51.136;14.942;2022-11-20T08:22:21;-0.40;99.90
37446;DHT22;23307;51.136;14.942;2022-11-20T08:24:48;-0.30;99.90
37446;DHT22;23307;51.136;14.942;2022-11-20T08:27:13;-0.30;99.90
37446;DHT22;23307;51.136;14.942;2022-11-20T08:29:39;-0.20;99.90
37446;DHT22;23307;51.136;14.942;2022-11-20T08:32:05;-0.20;99.90
37446;DHT22;23307;51.136;14.942;2022-11-20T08:34:30;-0.10;99.90
37446;DHT22;23307;51.136;14.942;2022-11-20T08:36:56;-0.10;99.90
37446;DHT22;23307;51.136;14.942;2022-11-20T08:39:21;-0.10;99.90
37446;DHT22;23307;51.136;14.942;2022-11-20T08:41:47;0.00;99.90
37446;DHT22;23307;51.136;14.942;2022-11-20T08:44:12;0.00;99.90
37446;DHT22;23307;51.136;14.942;2022-11-20T08:46:40;0.10;99.90
37446;DHT22;23307;51.136;14.942;2022-11-20T08:49:11;0.20;99.90
37446;DHT22;23307;51.136;14.942;2022-11-20T08:51:38;0.30;99.90
37446;DHT22;23307;51.136;14.942;2022-11-20T08:54:04;0.40;99.90
37446;DHT22;23307;51.136;14.942;2022-11-20T08:56:30;0.40;99.90
37446;DHT22;23307;51.136;14.942;2022-11-20T08:58:57;0.40;99.90
37446;DHT22;23307;51.136;14.942;2022-11-20T09:01:25;0.40;99.90
37446;DHT22;23307;51.136;14.942;2022-11-20T09:03:51;0.40;99.90
37446;DHT22;23307;51.136;14.942;2022-11-20T09:06:17;0.40;99.90
37446;DHT22;23307;51.136;14.942;2022-11-20T09:08:43;0.40;99.90
37446;DHT22;23307;51.136;14.942;2022-11-20T09:11:09;0.40;99.90
37446;DHT22;23307;51.136;14.942;2022-11-20T09:13:35;0.30;99.90
37446;DHT22;23307;51.136;14.942;2022-11-20T09:16:07;0.30;99.90
37446;DHT22;23307;51.136;14.942;2022-11-20T09:18:34;0.20;99.90
37446;DHT22;23307;51.136;14.942;2022-11-20T09:21:04;0.10;99.90
37446;DHT22;23307;51.136;14.942;2022-11-20T09:23:35;0.10;99.90
37446;DHT22;23307;51.136;14.942;2022-11-20T09:26:12;0.10;99.90
37446;DHT22;23307;51.136;14.942;2022-11-20T09:28:38;0.10;99.90
37446;DHT22;23307;51.136;14.942;2022-11-20T09:31:30;0.10;99.90
37446;DHT22;23307;51.136;14.942;2022-11-20T09:33:56;0.10;99.90
37446;DHT22;23307;51.136;14.942;2022-11-20T09:36:21;0.20;99.90
37446;DHT22;23307;51.136;14.942;2022-11-20T09:38:47;0.20;99.90
37446;DHT22;23307;51.136;14.942;2022-11-20T09:41:39;0.20;99.90
37446;DHT22;23307;51.136;14.942;2022-11-20T09:47:07;0.20;99.90
37446;DHT22;23307;51.136;14.942;2022-11-20T09:50:07;0.20;99.90
37446;DHT22;23307;51.136;14.942;2022-11-20T09:55:39;0.20;99.90
37446;DHT22;23307;51.136;14.942;2022-11-20T09:58:07;0.20;99.90
37446;DHT22;23307;51.136;14.942;2022-11-20T10:00:36;0.30;99.90
37446;DHT22;23307;51.136;14.942;2022-11-20T10:03:11;0.30;99.90
37446;DHT22;23307;51.136;14.942;2022-11-20T10:05:45;0.30;99.90
37446;DHT22;23307;51.136;14.942;2022-11-20T10:08:24;0.30;99.90
37446;DHT22;23307;51.136;14.942;2022-11-20T10:19:26;0.50;99.90
37446;DHT22;23307;51.136;14.942;2022-11-20T10:22:11;0.60;99.90
37446;DHT22;23307;51.136;14.942;2022-11-20T10:27:47;0.50;99.90
37446;DHT22;23307;51.136;14.942;2022-11-20T10:30:16;0.40;99.90
37446;DHT22;23307;51.136;14.942;2022-11-20T10:32:47;0.40;99.90
37446;DHT22;23307;51.136;14.942;2022-11-20T10:37:42;0.40;99.90
37446;DHT22;23307;51.136;14.942;2022-11-20T10:40:22;0.40;99.90
37446;DHT22;23307;51.136;14.942;2022-11-20T10:43:00;0.40;99.90
37446;DHT22;23307;51.136;14.942;2022-11-20T10:48:24;0.30;99.90
37446;DHT22;23307;51.136;14.942;2022-11-20T10:51:18;0.40;99.90
37446;DHT22;23307;51.136;14.942;2022-11-20T10:54:01;0.40;99.90
37446;DHT22;23307;51.136;14.942;2022-11-20T10:56:51;0.60;99.90
37446;DHT22;23307;51.136;14.942;2022-11-20T10:59:47;0.70;99.90
37446;DHT22;23307;51.136;14.942;2022-11-20T11:02:21;0.80;99.90
37446;DHT22;23307;51.136;14.942;2022-11-20T11:04:49;0.90;99.90
37446;DHT22;23307;51.136;14.942;2022-11-20T11:09:52;1.10;99.90
37446;DHT22;23307;51.136;14.942;2022-11-20T11:12:20;1.20;99.90
37446;DHT22;23307;51.136;14.942;2022-11-20T11:14:52;1.30;99.90
37446;DHT22;23307;51.136;14.942;2022-11-20T11:17:22;1.30;99.90
37446;DHT22;23307;51.136;14.942;2022-11-20T11:20:21;1.40;99.90
37446;DHT22;23307;51.136;14.942;2022-11-20T11:22:49;1.40;99.90
37446;DHT22;23307;51.136;14.942;2022-11-20T11:25:33;1.50;99.90
37446;DHT22;23307;51.136;14.942;2022-11-20T11:28:24;1.50;99.90
37446;DHT22;23307;51.136;14.942;2022-11-20T11:30:51;1.60;99.90
37446;DHT22;23307;51.136;14.942;2022-11-20T11:33:37;1.60;99.90
37446;DHT22;23307;51.136;14.942;2022-11-20T11:36:15;1.70;99.90
37446;DHT22;23307;51.136;14.942;2022-11-20T11:38:42;1.70;99.90
37446;DHT22;23307;51.136;14.942;2022-11-20T11:41:15;1.80;99.90
37446;DHT22;23307;51.136;14.942;2022-11-20T11:43:53;1.80;99.90
37446;DHT22;23307;51.136;14.942;2022-11-20T11:46:39;1.90;99.90
37446;DHT22;23307;51.136;14.942;2022-11-20T11:57:23;2.20;99.90
37446;DHT22;23307;51.136;14.942;2022-11-20T12:05:23;2.20;99.90
37446;DHT22;23307;51.136;14.942;2022-11-20T12:07:51;2.20;99.90
37446;DHT22;23307;51.136;14.942;2022-11-20T12:10:22;2.30;99.90
37446;DHT22;23307;51.136;14.942;2022-11-20T12:12:52;2.50;99.90
37446;DHT22;23307;51.136;14.942;2022-11-20T12:15:38;2.60;99.90
37446;DHT22;23307;51.136;14.942;2022-11-20T12:18:15;2.70;99.90
37446;DHT22;23307;51.136;14.942;2022-11-20T12:26:43;3.20;99.90
37446;DHT22;23307;51.136;14.942;2022-11-20T12:32:02;3.40;99.90
37446;DHT22;23307;51.136;14.942;2022-11-20T12:34:47;3.50;99.90
37446;DHT22;23307;51.136;14.942;2022-11-20T12:37:24;3.60;99.90
37446;DHT22;23307;51.136;14.942;2022-11-20T12:39:55;3.60;99.90
37446;DHT22;23307;51.136;14.942;2022-11-20T12:42:42;3.70;99.90
37446;DHT22;23307;51.136;14.942;2022-11-20T12:51:18;3.90;99.90
37446;DHT22;23307;51.136;14.942;2022-11-20T13:02:15;3.90;99.90
37446;DHT22;23307;51.136;14.942;2022-11-20T13:07:19;4.20;99.90
37446;DHT22;23307;51.136;14.942;2022-11-20T13:09:49;4.30;99.90
37446;DHT22;23307;51.136;14.942;2022-11-20T13:17:38;4.60;99.90
37446;DHT22;23307;51.136;14.942;2022-11-20T13:20:13;4.60;99.90
37446;DHT22;23307;51.136;14.942;2022-11-20T13:22:45;4.70;99.90
37446;DHT22;23307;51.136;14.942;2022-11-20T13:25:26;4.70;99.90
37446;DHT22;23307;51.136;14.942;2022-11-20T13:27:52;4.80;99.90
37446;DHT22;23307;51.136;14.942;2022-11-20T13:30:21;4.70;99.90
37446;DHT22;23307;51.136;14.942;2022-11-20T13:33:06;4.70;99.90
37446;DHT22;23307;51.136;14.942;2022-11-20T13:35:35;4.80;99.90
37446;DHT22;23307;51.136;14.942;2022-11-20T13:40:29;4.20;99.90
37446;DHT22;23307;51.136;14.942;2022-11-20T13:45:57;3.50;99.90
37446;DHT22;23307;51.136;14.942;2022-11-20T13:48:26;3.20;99.90
37446;DHT22;23307;51.136;14.942;2022-11-20T13:51:06;3.00;99.90
37446;DHT22;23307;51.136;14.942;2022-11-20T13:56:43;2.90;99.90
37446;DHT22;23307;51.136;14.942;2022-11-20T14:01:50;2.60;99.90
37446;DHT22;23307;51.136;14.942;2022-11-20T14:04:19;2.50;99.90
37446;DHT22;23307;51.136;14.942;2022-11-20T14:06:48;2.40;99.90
37446;DHT22;23307;51.136;14.942;2022-11-20T14:09:28;2.40;99.90
37446;DHT22;23307;51.136;14.942;2022-11-20T14:11:53;2.30;99.90
37446;DHT22;23307;51.136;14.942;2022-11-20T14:14:21;2.30;99.90
37446;DHT22;23307;51.136;14.942;2022-11-20T14:16:49;2.30;99.90
37446;DHT22;23307;51.136;14.942;2022-11-20T14:19:27;2.30;99.90
37446;DHT22;23307;51.136;14.942;2022-11-20T14:22:08;2.20;99.90
37446;DHT22;23307;51.136;14.942;2022-11-20T14:24:34;2.20;99.90
37446;DHT22;23307;51.136;14.942;2022-11-20T14:27:01;2.10;99.90
37446;DHT22;23307;51.136;14.942;2022-11-20T14:29:37;2.00;99.90
37446;DHT22;23307;51.136;14.942;2022-11-20T14:32:04;1.90;99.90
37446;DHT22;23307;51.136;14.942;2022-11-20T14:34:32;1.90;99.90
37446;DHT22;23307;51.136;14.942;2022-11-20T14:37:02;1.90;99.90
37446;DHT22;23307;51.136;14.942;2022-11-20T14:39:42;1.80;99.90
37446;DHT22;23307;51.136;14.942;2022-11-20T14:42:17;1.70;99.90
37446;DHT22;23307;51.136;14.942;2022-11-20T14:44:43;1.60;99.90
37446;DHT22;23307;51.136;14.942;2022-11-20T14:47:12;1.60;99.90
37446;DHT22;23307;51.136;14.942;2022-11-20T14:49:38;1.60;99.90
37446;DHT22;23307;51.136;14.942;2022-11-20T14:52:20;1.50;99.90
37446;DHT22;23307;51.136;14.942;2022-11-20T14:54:47;1.50;99.90
37446;DHT22;23307;51.136;14.942;2022-11-20T14:57:32;1.50;99.90
37446;DHT22;23307;51.136;14.942;2022-11-20T15:00:19;1.50;99.90
37446;DHT22;23307;51.136;14.942;2022-11-20T15:02:47;1.40;99.90
37446;DHT22;23307;51.136;14.942;2022-11-20T15:05:14;1.40;99.90
37446;DHT22;23307;51.136;14.942;2022-11-20T15:07:43;1.40;99.90
37446;DHT22;23307;51.136;14.942;2022-11-20T15:10:25;1.40;99.90
37446;DHT22;23307;51.136;14.942;2022-11-20T15:12:56;1.40;99.90
37446;DHT22;23307;51.136;14.942;2022-11-20T15:15:50;1.40;99.90
37446;DHT22;23307;51.136;14.942;2022-11-20T15:18:23;1.40;99.90
37446;DHT22;23307;51.136;14.942;2022-11-20T15:20:50;1.30;99.90
37446;DHT22;23307;51.136;14.942;2022-11-20T15:23:17;1.30;99.90
37446;DHT22;23307;51.136;14.942;2022-11-20T15:25:47;1.30;99.90
37446;DHT22;23307;51.136;14.942;2022-11-20T15:28:27;1.30;99.90
37446;DHT22;23307;51.136;14.942;2022-11-20T15:30:54;1.30;99.90
37446;DHT22;23307;51.136;14.942;2022-11-20T15:33:21;1.20;99.90
37446;DHT22;23307;51.136;14.942;2022-11-20T15:35:46;1.20;99.90
37446;DHT22;23307;51.136;14.942;2022-11-20T15:38:12;1.20;99.90
37446;DHT22;23307;51.136;14.942;2022-11-20T15:40:38;1.20;99.90
37446;DHT22;23307;51.136;14.942;2022-11-20T15:43:04;1.10;99.90
37446;DHT22;23307;51.136;14.942;2022-11-20T15:45:46;1.10;99.90
37446;DHT22;23307;51.136;14.942;2022-11-20T15:48:28;1.10;99.90
37446;DHT22;23307;51.136;14.942;2022-11-20T15:50:59;1.10;99.90
37446;DHT22;23307;51.136;14.942;2022-11-20T15:53:27;1.10;99.90
37446;DHT22;23307;51.136;14.942;2022-11-20T15:55:52;1.10;99.90
37446;DHT22;23307;51.136;14.942;2022-11-20T15:58:18;1.10;99.90
37446;DHT22;23307;51.136;14.942;2022-11-20T16:00:44;1.00;99.90
37446;DHT22;23307;51.136;14.942;2022-11-20T16:03:13;1.00;99.90
37446;DHT22;23307;51.136;14.942;2022-11-20T16:05:40;1.00;99.90
37446;DHT22;23307;51.136;14.942;2022-11-20T16:08:05;0.90;99.90
37446;DHT22;23307;51.136;14.942;2022-11-20T16:10:31;0.90;99.90
37446;DHT22;23307;51.136;14.942;2022-11-20T16:12:56;0.90;99.90
37446;DHT22;23307;51.136;14.942;2022-11-20T16:15:40;0.90;99.90
37446;DHT22;23307;51.136;14.942;2022-11-20T16:18:17;0.90;99.90
37446;DHT22;23307;51.136;14.942;2022-11-20T16:20:45;0.90;99.90
37446;DHT22;23307;51.136;14.942;2022-11-20T16:23:11;0.80;99.90
37446;DHT22;23307;51.136;14.942;2022-11-20T16:25:37;0.80;99.90
37446;DHT22;23307;51.136;14.942;2022-11-20T16:28:03;0.80;99.90
37446;DHT22;23307;51.136;14.942;2022-11-20T16:30:30;0.80;99.90
37446;DHT22;23307;51.136;14.942;2022-11-20T16:32:56;0.80;99.90
37446;DHT22;23307;51.136;14.942;2022-11-20T16:35:21;0.80;99.90
37446;DHT22;23307;51.136;14.942;2022-11-20T16:37:47;0.70;99.90
37446;DHT22;23307;51.136;14.942;2022-11-20T16:40:12;0.70;99.90
37446;DHT22;23307;51.136;14.942;2022-11-20T16:42:38;0.70;99.90
37446;DHT22;23307;51.136;14.942;2022-11-20T16:45:04;0.70;99.90
37446;DHT22;23307;51.136;14.942;2022-11-20T16:47:34;0.80;99.90
37446;DHT22;23307;51.136;14.942;2022-11-20T16:50:00;0.80;99.90
37446;DHT22;23307;51.136;14.942;2022-11-20T16:52:26;0.70;99.90
37446;DHT22;23307;51.136;14.942;2022-11-20T16:54:52;0.70;99.90
37446;DHT22;23307;51.136;14.942;2022-11-20T16:57:18;0.70;99.90
37446;DHT22;23307;51.136;14.942;2022-11-20T16:59:43;0.90;99.90
37446;DHT22;23307;51.136;14.942;2022-11-20T17:02:09;0.90;99.90
37446;DHT22;23307;51.136;14.942;2022-11-20T17:04:35;0.80;99.90
37446;DHT22;23307;51.136;14.942;2022-11-20T17:07:01;0.80;99.90